createdAt,value
2023-04-18T00:01:26.968Z,176.07
2023-04-18T00:03:59.618Z,173.19
2023-04-18T00:06:32.219Z,162.69
2023-04-18T00:09:07.474Z,157.54
2023-04-18T00:11:39.822Z,153.96
2023-04-18T00:14:12.293Z,156.10
2023-04-18T00:16:44.859Z,158.20
2023-04-18T00:19:18.529Z,154.51
2023-04-18T00:21:53.663Z,154.64
2023-04-18T00:24:28.465Z,154.51
2023-04-18T00:27:01.791Z,150.22
2023-04-18T00:29:34.550Z,145.11
2023-04-18T00:32:07.274Z,142.69
2023-04-18T00:34:40.620Z,141.99
2023-04-18T00:37:13.128Z,135.31
2023-04-18T00:39:47.973Z,135.54
2023-04-18T00:42:20.349Z,134.31
2023-04-18T00:44:52.858Z,137.03
2023-04-18T00:47:25.183Z,131.80
2023-04-18T00:49:58.350Z,130.42
2023-04-18T00:52:33.940Z,130.31
2023-04-18T00:55:12.258Z,131.34
2023-04-18T00:57:46.111Z,132.08
2023-04-18T01:00:19.337Z,129.60
2023-04-18T01:02:53.453Z,126.44
2023-04-18T01:05:26.574Z,130.54
2023-04-18T01:08:01.452Z,133.49
2023-04-18T01:10:36.471Z,132.80
2023-04-18T01:13:16.756Z,134.04
2023-04-18T01:15:51.721Z,141.33
2023-04-18T01:18:24.563Z,136.36
2023-04-18T01:21:00.254Z,139.37
2023-04-18T01:23:32.550Z,138.78
2023-04-18T01:26:07.383Z,134.91
2023-04-18T01:28:41.585Z,128.85
2023-04-18T01:31:13.860Z,131.64
2023-04-18T01:33:46.671Z,131.20
2023-04-18T01:36:19.268Z,126.02
2023-04-18T01:38:51.582Z,127.20
2023-04-18T01:41:27.491Z,130.07
2023-04-18T01:44:00.227Z,127.12
2023-04-18T01:46:32.744Z,122.11
2023-04-18T01:49:05.012Z,124.19
2023-04-18T01:51:38.954Z,128.39
2023-04-18T01:54:11.402Z,124.02
2023-04-18T01:56:46.287Z,121.76
2023-04-18T01:59:18.545Z,124.94
2023-04-18T02:01:51.322Z,123.28
2023-04-18T02:04:23.659Z,122.01
2023-04-18T02:06:56.006Z,122.95
2023-04-18T02:09:28.313Z,119.92
2023-04-18T02:12:05.038Z,122.64
2023-04-18T02:14:40.162Z,124.21
2023-04-18T02:17:12.384Z,121.11
2023-04-18T02:19:44.589Z,122.15
2023-04-18T02:22:16.998Z,122.86
2023-04-18T02:24:49.369Z,119.97
2023-04-18T02:27:24.185Z,121.94
2023-04-18T02:29:56.450Z,120.74
2023-04-18T02:32:30.253Z,120.16
2023-04-18T02:35:02.567Z,120.42
2023-04-18T02:37:34.743Z,123.02
2023-04-18T02:40:07.401Z,123.70
2023-04-18T02:42:42.799Z,121.63
2023-04-18T02:45:15.423Z,119.41
2023-04-18T02:47:55.557Z,117.91
2023-04-18T02:50:29.314Z,121.99
2023-04-18T02:53:01.793Z,113.95
2023-04-18T02:55:34.119Z,121.50
2023-04-18T02:58:09.562Z,125.09
2023-04-18T03:00:41.755Z,123.51
2023-04-18T03:03:14.400Z,122.54
2023-04-18T03:05:46.804Z,127.44
2023-04-18T03:08:19.136Z,126.39
2023-04-18T03:10:51.459Z,125.96
2023-04-18T03:13:26.412Z,130.39
2023-04-18T03:15:58.973Z,128.89
2023-04-18T03:18:31.635Z,127.05
2023-04-18T03:21:03.877Z,131.02
2023-04-18T03:23:36.392Z,126.67
2023-04-18T03:26:10.198Z,127.34
2023-04-18T03:28:45.082Z,130.39
2023-04-18T03:31:17.406Z,135.95
2023-04-18T03:33:51.812Z,130.96
2023-04-18T03:36:25.522Z,133.39
2023-04-18T03:38:58.747Z,136.14
2023-04-18T03:41:31.076Z,134.68
2023-04-18T03:44:05.879Z,137.89
2023-04-18T03:46:38.555Z,139.86
2023-04-18T03:49:10.870Z,140.23
2023-04-18T03:51:50.726Z,141.33
2023-04-18T03:54:23.553Z,139.90
2023-04-18T03:56:56.060Z,139.47
2023-04-18T03:59:31.400Z,142.59
2023-04-18T04:02:03.868Z,145.89
2023-04-18T04:04:36.254Z,142.55
2023-04-18T04:07:08.820Z,144.24
2023-04-18T04:09:41.064Z,148.71
2023-04-18T04:12:13.604Z,148.36
2023-04-18T04:14:48.416Z,147.62
2023-04-18T04:17:20.956Z,144.35
2023-04-18T04:19:53.899Z,147.36
2023-04-18T04:22:26.937Z,144.70
2023-04-18T04:25:00.977Z,147.42
2023-04-18T04:27:34.149Z,148.21
2023-04-18T04:30:11.977Z,150.94
2023-04-18T04:32:45.861Z,150.73
2023-04-18T04:35:18.223Z,148.86
2023-04-18T04:37:50.849Z,147.14
2023-04-18T04:40:23.246Z,147.10
2023-04-18T04:42:56.329Z,147.91
2023-04-18T04:45:31.361Z,150.26
2023-04-18T04:48:03.785Z,151.79
2023-04-18T04:50:40.414Z,146.71
2023-04-18T04:53:13.249Z,146.06
2023-04-18T04:55:45.698Z,148.17
2023-04-18T04:58:17.944Z,148.76
2023-04-18T05:00:53.909Z,153.00
2023-04-18T05:03:27.524Z,149.08
2023-04-18T05:06:00.234Z,149.34
2023-04-18T05:08:32.510Z,148.96
2023-04-18T05:11:05.981Z,151.49
2023-04-18T05:13:38.524Z,152.76
2023-04-18T05:16:13.851Z,148.81
2023-04-18T05:18:46.191Z,148.09
2023-04-18T05:21:18.448Z,148.67
2023-04-18T05:23:51.058Z,148.75
2023-04-18T05:26:23.351Z,146.39
2023-04-18T05:28:55.658Z,150.73
2023-04-18T05:31:30.611Z,149.24
2023-04-18T05:34:02.912Z,149.06
2023-04-18T05:36:35.717Z,151.42
2023-04-18T05:39:08.334Z,153.91
2023-04-18T05:41:41.083Z,149.45
2023-04-18T05:44:13.688Z,146.59
2023-04-18T05:46:51.497Z,147.18
2023-04-18T05:49:23.823Z,147.71
2023-04-18T05:51:56.778Z,148.13
2023-04-18T05:54:29.195Z,144.14
2023-04-18T05:57:03.863Z,148.07
2023-04-18T05:59:36.930Z,147.51
2023-04-18T06:02:13.763Z,144.51
2023-04-18T06:04:48.748Z,149.76
2023-04-18T06:07:21.578Z,144.84
2023-04-18T06:09:54.280Z,148.19
2023-04-18T06:12:26.798Z,142.63
2023-04-18T06:14:59.149Z,145.72
2023-04-18T06:17:34.561Z,145.06
2023-04-18T06:20:07.268Z,146.71
2023-04-18T06:22:39.868Z,143.09
2023-04-18T06:25:12.970Z,144.36
2023-04-18T06:27:45.256Z,139.50
2023-04-18T06:30:22.120Z,144.19
2023-04-18T06:32:57.534Z,144.41
2023-04-18T06:35:29.826Z,137.59
2023-04-18T06:38:02.427Z,135.99
2023-04-18T06:40:34.703Z,137.59
2023-04-18T06:43:07.218Z,137.58
2023-04-18T06:45:40.259Z,136.58
2023-04-18T06:48:15.194Z,133.51
2023-04-18T06:50:47.389Z,131.62
2023-04-18T06:53:20.030Z,129.24
2023-04-18T06:55:52.688Z,128.56
2023-04-18T06:58:24.942Z,127.52
2023-04-18T07:00:57.220Z,123.36
2023-04-18T07:03:32.500Z,120.55
2023-04-18T07:06:04.793Z,125.98
2023-04-18T07:08:37.271Z,126.39
2023-04-18T07:11:10.272Z,120.51
2023-04-18T07:13:43.378Z,122.41
2023-04-18T07:16:15.724Z,121.58
2023-04-18T07:18:51.850Z,121.64
2023-04-18T07:21:24.206Z,118.67
2023-04-18T07:23:56.582Z,118.25
2023-04-18T07:26:29.377Z,119.69
2023-04-18T07:29:01.720Z,120.16
2023-04-18T07:31:34.310Z,117.74
2023-04-18T07:34:09.248Z,116.94
2023-04-18T07:36:41.557Z,113.41
2023-04-18T07:39:14.199Z,112.96
2023-04-18T07:41:46.490Z,113.12
2023-04-18T07:44:18.741Z,115.51
2023-04-18T07:46:51.179Z,112.96
2023-04-18T07:49:26.117Z,111.92
2023-04-18T07:51:58.390Z,109.95
2023-04-18T07:54:30.773Z,109.47
2023-04-18T07:57:03.607Z,102.05
2023-04-18T07:59:36.196Z,103.66
2023-04-18T08:02:08.740Z,102.96
2023-04-18T08:04:43.724Z,101.36
2023-04-18T08:07:16.019Z,103.17
2023-04-18T08:09:48.425Z,103.07
2023-04-18T08:12:20.861Z,97.27
2023-04-18T08:14:53.097Z,97.27
2023-04-18T08:17:26.220Z,97.87
2023-04-18T08:20:05.300Z,93.27
2023-04-18T08:22:50.067Z,94.91
2023-04-18T08:25:31.790Z,96.34
2023-04-18T08:28:04.337Z,95.33
2023-04-18T08:30:37.063Z,95.71
2023-04-18T08:33:09.692Z,98.28
2023-04-18T08:35:44.546Z,92.91
2023-04-18T08:38:17.402Z,90.71
2023-04-18T08:40:50.684Z,88.93
2023-04-18T08:43:23.117Z,85.69
2023-04-18T08:45:55.485Z,84.35
2023-04-18T08:48:28.008Z,89.38
2023-04-18T08:51:05.565Z,88.79
2023-04-18T08:53:39.473Z,89.54
2023-04-18T08:56:14.824Z,91.03
2023-04-18T08:58:48.198Z,89.84
2023-04-18T09:01:21.636Z,86.93
2023-04-18T09:03:53.967Z,86.00
2023-04-18T09:06:30.449Z,82.59
2023-04-18T09:09:04.555Z,80.94
2023-04-18T09:11:36.794Z,79.26
2023-04-18T09:14:09.035Z,79.48
2023-04-18T09:16:50.768Z,80.91
2023-04-18T09:19:23.907Z,80.91
2023-04-18T09:22:08.416Z,76.41
2023-04-18T09:24:40.637Z,77.61
2023-04-18T09:27:17.125Z,81.85
2023-04-18T09:29:52.094Z,88.18
2023-04-18T09:32:29.598Z,91.86
2023-04-18T09:35:05.586Z,87.96
2023-04-18T09:37:40.681Z,93.19
2023-04-18T09:40:21.548Z,93.95
2023-04-18T09:42:57.231Z,90.55
2023-04-18T09:45:30.734Z,94.16
2023-04-18T09:48:03.043Z,91.79
2023-04-18T09:50:38.117Z,85.51
2023-04-18T09:53:15.294Z,79.35
2023-04-18T09:55:47.999Z,76.24
2023-04-18T09:58:24.689Z,73.84
2023-04-18T10:00:59.981Z,66.66
2023-04-18T10:03:44.502Z,70.49
2023-04-18T10:06:21.223Z,66.65
2023-04-18T10:08:57.888Z,62.38
2023-04-18T10:11:31.010Z,61.02
2023-04-18T10:14:08.391Z,64.31
2023-04-18T10:16:42.621Z,60.40
2023-04-18T10:19:29.779Z,61.76
2023-04-18T10:22:04.752Z,63.26
2023-04-18T10:24:57.301Z,64.55
2023-04-18T10:28:00.179Z,66.93
2023-04-18T10:30:55.213Z,68.87
2023-04-18T10:33:33.795Z,66.86
2023-04-18T10:36:20.334Z,73.29
2023-04-18T10:38:54.713Z,77.10
2023-04-18T10:41:32.131Z,71.51
2023-04-18T10:44:23.731Z,63.69
2023-04-18T10:47:32.459Z,62.94
2023-04-18T10:50:07.057Z,64.56
2023-04-18T10:52:39.623Z,61.63
2023-04-18T10:55:28.232Z,66.19
2023-04-18T10:58:03.375Z,63.06
2023-04-18T11:00:36.589Z,63.21
2023-04-18T11:03:09.794Z,62.26
2023-04-18T11:05:42.187Z,63.26
2023-04-18T11:08:26.996Z,63.86
2023-04-18T11:11:04.281Z,66.58
2023-04-18T11:13:39.305Z,66.96
2023-04-18T11:16:12.271Z,69.91
2023-04-18T11:18:44.722Z,72.39
2023-04-18T11:21:17.852Z,73.32
2023-04-18T11:23:50.777Z,76.82
2023-04-18T11:26:23.571Z,77.81
2023-04-18T11:29:02.629Z,82.52
2023-04-18T11:31:35.641Z,81.59
2023-04-18T11:34:07.928Z,83.66
2023-04-18T11:36:40.461Z,87.67
2023-04-18T11:39:12.968Z,92.31
2023-04-18T11:41:50.603Z,93.68
2023-04-18T11:44:28.431Z,92.06
2023-04-18T11:47:01.110Z,94.39
2023-04-18T11:49:34.896Z,95.90
2023-04-18T11:52:15.935Z,99.16
2023-04-18T11:54:48.851Z,98.11
2023-04-18T11:57:26.713Z,97.79
2023-04-18T12:00:04.218Z,105.04
2023-04-18T12:02:46.190Z,101.17
2023-04-18T12:05:29.938Z,103.11
2023-04-18T12:08:11.516Z,104.64
2023-04-18T12:10:51.394Z,102.36
2023-04-18T12:13:29.766Z,107.81
2023-04-18T12:16:06.495Z,108.95
2023-04-18T12:18:39.321Z,107.55
2023-04-18T12:21:11.911Z,109.13
2023-04-18T12:23:46.124Z,104.52
2023-04-18T12:26:23.033Z,109.61
2023-04-18T12:28:57.079Z,113.92
2023-04-18T12:31:31.918Z,113.28
2023-04-18T12:34:04.145Z,115.67
2023-04-18T12:36:36.387Z,114.44
2023-04-18T12:39:08.996Z,117.71
2023-04-18T12:41:41.252Z,118.64
2023-04-18T12:44:13.752Z,116.89
2023-04-18T12:46:48.808Z,123.06
2023-04-18T12:49:21.137Z,118.81
2023-04-18T12:51:54.432Z,119.49
2023-04-18T12:54:26.719Z,118.24
2023-04-18T12:56:59.024Z,118.62
2023-04-18T12:59:31.263Z,121.04
2023-04-18T13:02:06.289Z,121.65
2023-04-18T13:04:38.812Z,117.80
2023-04-18T13:07:11.314Z,119.14
2023-04-18T13:09:43.728Z,118.00
2023-04-18T13:12:16.200Z,127.53
2023-04-18T13:14:48.455Z,129.56
2023-04-18T13:17:23.367Z,133.82
2023-04-18T13:19:55.614Z,136.62
2023-04-18T13:22:28.568Z,135.19
2023-04-18T13:25:00.859Z,136.72
2023-04-18T13:27:33.435Z,137.02
2023-04-18T13:30:06.123Z,134.75
2023-04-18T13:32:43.203Z,134.52
2023-04-18T13:35:16.258Z,136.86
2023-04-18T13:37:48.738Z,135.34
2023-04-18T13:40:20.982Z,137.82
2023-04-18T13:42:53.454Z,138.27
2023-04-18T13:45:25.676Z,134.57
2023-04-18T13:48:00.812Z,135.55
2023-04-18T13:50:33.102Z,135.66
2023-04-18T13:53:05.425Z,135.03
2023-04-18T13:55:38.621Z,135.86
2023-04-18T13:58:10.906Z,134.69
2023-04-18T14:00:43.379Z,136.92
2023-04-18T14:03:19.542Z,136.60
2023-04-18T14:05:51.879Z,133.79
2023-04-18T14:08:24.058Z,131.92
2023-04-18T14:10:56.349Z,129.01
2023-04-18T14:13:28.666Z,131.85
2023-04-18T14:16:00.943Z,131.25
2023-04-18T14:18:36.124Z,131.23
2023-04-18T14:21:09.180Z,127.89
2023-04-18T14:23:41.626Z,130.19
2023-04-18T14:26:13.887Z,133.31
2023-04-18T14:28:46.104Z,135.01
2023-04-18T14:31:18.840Z,136.20
2023-04-18T14:33:53.806Z,139.44
2023-04-18T14:36:26.479Z,132.46
2023-04-18T14:38:59.290Z,132.72
2023-04-18T14:41:31.660Z,132.21
2023-04-18T14:44:04.275Z,132.59
2023-04-18T14:46:36.729Z,130.86
2023-04-18T14:49:11.600Z,129.84
2023-04-18T14:51:44.586Z,125.48
2023-04-18T14:54:16.885Z,122.55
2023-04-18T14:56:49.287Z,118.08
2023-04-18T14:59:21.565Z,122.19
2023-04-18T15:01:54.004Z,118.16
2023-04-18T15:04:29.106Z,116.22
2023-04-18T15:07:02.693Z,122.31
2023-04-18T15:09:39.208Z,115.20
2023-04-18T15:12:11.988Z,109.97
2023-04-18T15:14:44.388Z,114.11
2023-04-18T15:17:16.823Z,106.97
2023-04-18T15:19:51.790Z,109.25
2023-04-18T15:22:24.254Z,104.44
2023-04-18T15:24:56.469Z,105.97
2023-04-18T15:27:28.701Z,109.69
2023-04-18T15:30:00.998Z,109.84
2023-04-18T15:32:34.257Z,105.72
2023-04-18T15:35:10.172Z,100.83
2023-04-18T15:37:42.664Z,101.96
2023-04-18T15:40:16.535Z,96.87
2023-04-18T15:42:49.678Z,103.15
2023-04-18T15:45:22.005Z,103.07
2023-04-18T15:47:54.341Z,104.63
2023-04-18T15:50:30.802Z,105.41
2023-04-18T15:53:04.504Z,100.66
2023-04-18T15:55:36.771Z,106.76
2023-04-18T15:58:09.481Z,104.69
2023-04-18T16:00:41.899Z,109.04
2023-04-18T16:03:14.403Z,101.79
2023-04-18T16:05:49.893Z,99.18
2023-04-18T16:08:22.111Z,100.66
2023-04-18T16:10:56.264Z,97.41
2023-04-18T16:13:28.735Z,98.30
2023-04-18T16:16:01.049Z,97.45
2023-04-18T16:18:34.097Z,96.56
2023-04-18T16:21:09.233Z,94.23
2023-04-18T16:23:41.623Z,93.89
2023-04-18T16:26:13.890Z,90.69
2023-04-18T16:28:46.149Z,92.06
2023-04-18T16:31:18.859Z,100.60
2023-04-18T16:33:52.748Z,101.29
2023-04-18T16:36:27.828Z,99.51
2023-04-18T16:39:00.043Z,101.19
2023-04-18T16:41:32.291Z,99.56
2023-04-18T16:44:04.516Z,104.16
2023-04-18T16:46:36.808Z,104.45
2023-04-18T16:49:09.115Z,98.53
2023-04-18T16:51:44.185Z,100.89
2023-04-18T16:54:16.553Z,97.93
2023-04-18T16:56:48.889Z,101.71
2023-04-18T16:59:21.161Z,97.87
2023-04-18T17:01:53.596Z,99.59
2023-04-18T17:04:27.083Z,100.64
2023-04-18T17:07:01.984Z,103.29
2023-04-18T17:09:34.987Z,100.59
2023-04-18T17:12:08.575Z,103.49
2023-04-18T17:14:40.823Z,101.26
2023-04-18T17:17:13.176Z,102.12
2023-04-18T17:19:46.172Z,100.62
2023-04-18T17:22:21.221Z,97.61
2023-04-18T17:24:53.548Z,100.12
2023-04-18T17:27:25.748Z,102.93
2023-04-18T17:29:58.005Z,103.01
2023-04-18T17:32:30.423Z,103.76
2023-04-18T17:35:04.923Z,104.18
2023-04-18T17:37:39.807Z,104.29
2023-04-18T17:40:13.330Z,105.86
2023-04-18T17:42:45.845Z,104.61
2023-04-18T17:45:18.064Z,105.86
2023-04-18T17:47:51.084Z,104.75
2023-04-18T17:50:23.539Z,110.06
2023-04-18T17:52:58.520Z,107.56
2023-04-18T17:55:30.725Z,110.20
2023-04-18T17:58:02.966Z,108.30
2023-04-18T18:00:35.575Z,106.49
2023-04-18T18:03:13.606Z,107.21
2023-04-18T18:05:49.173Z,105.01
2023-04-18T18:08:24.494Z,107.48
2023-04-18T18:10:56.695Z,109.89
2023-04-18T18:13:28.998Z,106.72
2023-04-18T18:16:01.260Z,109.11
2023-04-18T18:18:33.625Z,110.80
2023-04-18T18:21:05.972Z,116.70
2023-04-18T18:23:40.816Z,112.89
2023-04-18T18:26:13.204Z,109.26
2023-04-18T18:28:45.391Z,112.89
2023-04-18T18:31:17.887Z,113.36
2023-04-18T18:33:50.282Z,112.91
2023-04-18T18:36:22.547Z,112.19
2023-04-18T18:38:57.377Z,113.94
2023-04-18T18:41:29.620Z,114.46
2023-04-18T18:44:02.030Z,111.85
2023-04-18T18:46:35.550Z,116.01
2023-04-18T18:49:08.294Z,119.26
2023-04-18T18:51:41.156Z,124.05
2023-04-18T18:54:16.053Z,122.04
2023-04-18T18:56:48.436Z,123.78
2023-04-18T18:59:20.714Z,125.04
2023-04-18T19:01:53.143Z,127.94
2023-04-18T19:04:26.142Z,130.33
2023-04-18T19:06:58.430Z,127.95
2023-04-18T19:09:33.197Z,124.81
2023-04-18T19:12:05.463Z,124.81
2023-04-18T19:14:37.844Z,128.23
2023-04-18T19:17:10.108Z,130.80
2023-04-18T19:19:42.943Z,129.01
2023-04-18T19:22:16.890Z,127.11
2023-04-18T19:24:52.233Z,122.45
2023-04-18T19:27:24.472Z,115.46
2023-04-18T19:29:56.763Z,107.61
2023-04-18T19:32:29.217Z,106.69
2023-04-18T19:35:01.500Z,104.06
2023-04-18T19:37:33.727Z,102.71
2023-04-18T19:40:09.558Z,100.69
2023-04-18T19:42:42.079Z,96.19
2023-04-18T19:45:15.524Z,95.10
2023-04-18T19:47:48.026Z,96.53
2023-04-18T19:50:20.629Z,93.95
2023-04-18T19:52:53.003Z,97.39
2023-04-18T19:55:28.087Z,90.72
2023-04-18T19:58:00.868Z,92.44
2023-04-18T20:00:34.294Z,93.94
2023-04-18T20:03:06.799Z,96.15
2023-04-18T20:05:39.489Z,95.82
2023-04-18T20:08:11.754Z,95.27
2023-04-18T20:10:46.632Z,93.12
2023-04-18T20:13:19.045Z,95.85
2023-04-18T20:15:51.320Z,98.07
2023-04-18T20:18:24.822Z,99.77
2023-04-18T20:20:57.040Z,96.91
2023-04-18T20:23:29.597Z,98.13
2023-04-18T20:26:04.622Z,96.34
2023-04-18T20:28:38.033Z,95.85
2023-04-18T20:31:10.325Z,96.50
2023-04-18T20:33:42.715Z,99.76
2023-04-18T20:36:17.702Z,97.97
2023-04-18T20:38:50.503Z,94.61
2023-04-18T20:41:26.967Z,96.16
2023-04-18T20:44:00.068Z,99.58
2023-04-18T20:46:32.416Z,97.70
2023-04-18T20:49:04.796Z,97.09
2023-04-18T20:51:38.163Z,98.88
2023-04-18T20:54:10.678Z,98.42
2023-04-18T20:56:45.529Z,93.85
2023-04-18T20:59:17.760Z,97.02
2023-04-18T21:01:50.184Z,97.94
2023-04-18T21:04:22.781Z,93.30
2023-04-18T21:06:55.024Z,94.09
2023-04-18T21:09:27.276Z,92.34
2023-04-18T21:12:02.711Z,93.17
2023-04-18T21:14:34.948Z,96.65
2023-04-18T21:17:07.167Z,94.75
2023-04-18T21:19:39.407Z,94.52
2023-04-18T21:22:12.411Z,94.51
2023-04-18T21:24:45.281Z,91.88
2023-04-18T21:27:20.094Z,92.84
2023-04-18T21:29:52.346Z,92.39
2023-04-18T21:32:24.708Z,90.97
2023-04-18T21:34:57.962Z,91.61
2023-04-18T21:37:30.167Z,92.59
2023-04-18T21:40:02.355Z,90.82
2023-04-18T21:42:37.765Z,87.56
2023-04-18T21:45:11.389Z,91.00
2023-04-18T21:47:43.623Z,90.06
2023-04-18T21:50:16.159Z,90.40
2023-04-18T21:52:48.384Z,89.16
2023-04-18T21:55:21.384Z,87.89
2023-04-18T21:57:56.953Z,89.67
2023-04-18T22:00:29.307Z,89.21
2023-04-18T22:03:01.772Z,88.99
2023-04-18T22:05:34.124Z,89.54
2023-04-18T22:08:06.363Z,86.83
2023-04-18T22:10:38.976Z,88.75
2023-04-18T22:13:14.103Z,88.69
2023-04-18T22:15:46.296Z,86.24
2023-04-18T22:18:18.902Z,87.60
2023-04-18T22:20:51.131Z,87.41
2023-04-18T22:23:23.475Z,87.11
2023-04-18T22:25:55.673Z,87.62
2023-04-18T22:28:30.947Z,90.37
2023-04-18T22:31:03.336Z,88.55
2023-04-18T22:33:35.590Z,87.77
2023-04-18T22:36:08.515Z,86.99
2023-04-18T22:38:40.725Z,87.51
2023-04-18T22:41:13.215Z,89.87
2023-04-18T22:43:48.113Z,91.44
2023-04-18T22:46:20.382Z,89.76
2023-04-18T22:48:54.363Z,93.11
2023-04-18T22:51:28.803Z,90.76
2023-04-18T22:54:01.412Z,89.90
2023-04-18T22:56:33.706Z,91.24
2023-04-18T22:59:08.455Z,89.46
2023-04-18T23:01:40.819Z,91.30
2023-04-18T23:04:13.277Z,91.46
2023-04-18T23:06:45.706Z,93.34
2023-04-18T23:09:19.850Z,87.99
2023-04-18T23:11:52.161Z,90.37
2023-04-18T23:14:26.967Z,89.51
2023-04-18T23:16:59.262Z,93.31
2023-04-18T23:19:31.460Z,91.94
2023-04-18T23:22:04.499Z,92.41
2023-04-18T23:24:36.818Z,91.66
2023-04-18T23:27:09.193Z,93.94
2023-04-18T23:29:44.251Z,92.57
2023-04-18T23:32:16.653Z,95.04
2023-04-18T23:34:49.772Z,96.34
2023-04-18T23:37:22.050Z,94.93
2023-04-18T23:39:54.345Z,97.34
2023-04-18T23:42:26.761Z,94.66
2023-04-18T23:45:01.594Z,95.00
2023-04-18T23:47:34.243Z,96.95
2023-04-18T23:50:06.773Z,98.09
2023-04-18T23:52:39.079Z,99.55
2023-04-18T23:55:12.229Z,99.21
2023-04-18T23:57:44.541Z,99.76
